sensor_id;sensor_type;location;lat;lon;timestamp;pressure;altitude;pressure_sealevel;temperature;humidity
3096;BME280;1558;42.700;23.360;2023-01-26T00:02:01;95834.38;;;-0.29;100.00
3096;BME280;1558;42.700;23.360;2023-01-26T00:04:29;95842.06;;;-0.27;100.00
3096;BME280;1558;42.700;23.360;2023-01-26T00:06:59;95848.38;;;-0.28;100.00
3096;BME280;1558;42.700;23.360;2023-01-26T00:09:27;95857.94;;;-0.27;100.00
3096;BME280;1558;42.700;23.360;2023-01-26T00:11:54;95840.34;;;-0.38;100.00
3096;BME280;1558;42.700;23.360;2023-01-26T00:14:22;95820.63;;;-0.47;100.00
3096;BME280;1558;42.700;23.360;2023-01-26T00:16:50;95803.25;;;-0.65;100.00
3096;BME280;1558;42.700;23.360;2023-01-26T00:19:19;95852.03;;;-0.34;100.00
3096;BME280;1558;42.700;23.360;2023-01-26T00:21:47;95856.06;;;-0.32;100.00
3096;BME280;1558;42.700;23.360;2023-01-26T00:24:16;95845.06;;;-0.40;100.00
3096;BME280;1558;42.700;23.360;2023-01-26T00:26:44;95858.44;;;-0.30;100.00
3096;BME280;1558;42.700;23.360;2023-01-26T00:29:12;95846.16;;;-0.41;100.00
3096;BME280;1558;42.700;23.360;2023-01-26T00:31:39;95842.25;;;-0.34;100.00
3096;BME280;1558;42.700;23.360;2023-01-26T00:34:08;95841.50;;;-0.29;100.00
3096;BME280;1558;42.700;23.360;2023-01-26T00:36:36;95839.34;;;-0.32;100.00
3096;BME280;1558;42.700;23.360;2023-01-26T00:39:04;95779.66;;;-0.67;100.00
3096;BME280;1558;42.700;23.360;2023-01-26T00:41:33;95816.53;;;-0.33;100.00
3096;BME280;1558;42.700;23.360;2023-01-26T00:44:18;95820.81;;;-0.32;100.00
3096;BME280;1558;42.700;23.360;2023-01-26T00:46:46;95804.78;;;-0.42;100.00
3096;BME280;1558;42.700;23.360;2023-01-26T00:49:14;95811.50;;;-0.35;100.00
3096;BME280;1558;42.700;23.360;2023-01-26T00:51:42;95817.34;;;-0.33;100.00
3096;BME280;1558;42.700;23.360;2023-01-26T00:54:10;95807.28;;;-0.31;100.00
3096;BME280;1558;42.700;23.360;2023-01-26T00:56:39;95814.47;;;-0.31;100.00
3096;BME280;1558;42.700;23.360;2023-01-26T00:59:07;95786.47;;;-0.49;100.00
3096;BME280;1558;42.700;23.360;2023-01-26T01:01:35;95804.34;;;-0.34;100.00
3096;BME280;1558;42.700;23.360;2023-01-26T01:04:03;95808.03;;;-0.35;100.00
3096;BME280;1558;42.700;23.360;2023-01-26T01:06:31;95803.56;;;-0.35;100.00
3096;BME280;1558;42.700;23.360;2023-01-26T01:08:59;95797.44;;;-0.35;100.00
3096;BME280;1558;42.700;23.360;2023-01-26T01:11:27;95797.44;;;-0.35;100.00
3096;BME280;1558;42.700;23.360;2023-01-26T01:13:56;95779.88;;;-0.46;100.00
3096;BME280;1558;42.700;23.360;2023-01-26T01:16:24;95792.16;;;-0.35;100.00
3096;BME280;1558;42.700;23.360;2023-01-26T01:18:54;95792.16;;;-0.35;100.00
3096;BME280;1558;42.700;23.360;2023-01-26T01:21:23;95784.19;;;-0.35;100.00
3096;BME280;1558;42.700;23.360;2023-01-26T01:23:51;95795.88;;;-0.36;100.00
3096;BME280;1558;42.700;23.360;2023-01-26T01:26:19;95742.69;;;-0.56;100.00
3096;BME280;1558;42.700;23.360;2023-01-26T01:28:47;95789.50;;;-0.35;100.00
3096;BME280;1558;42.700;23.360;2023-01-26T01:31:16;95792.16;;;-0.35;100.00
3096;BME280;1558;42.700;23.360;2023-01-26T01:33:44;95784.94;;;-0.40;100.00
3096;BME280;1558;42.700;23.360;2023-01-26T01:36:14;95780.47;;;-0.39;100.00
3096;BME280;1558;42.700;23.360;2023-01-26T01:38:43;95762.66;;;-0.44;100.00
3096;BME280;1558;42.700;23.360;2023-01-26T01:41:12;95747.63;;;-0.65;100.00
3096;BME280;1558;42.700;23.360;2023-01-26T01:43:41;95784.72;;;-0.38;100.00
3096;BME280;1558;42.700;23.360;2023-01-26T01:46:15;95776.47;;;-0.42;100.00
3096;BME280;1558;42.700;23.360;2023-01-26T01:48:50;95779.38;;;-0.43;100.00
3096;BME280;1558;42.700;23.360;2023-01-26T01:51:24;95781.75;;;-0.42;100.00
3096;BME280;1558;42.700;23.360;2023-01-26T01:53:58;95776.19;;;-0.40;100.00
3096;BME280;1558;42.700;23.360;2023-01-26T01:56:32;95781.47;;;-0.45;100.00
3096;BME280;1558;42.700;23.360;2023-01-26T01:59:02;95774.56;;;-0.46;100.00
3096;BME280;1558;42.700;23.360;2023-01-26T02:01:33;95772.19;;;-0.48;100.00
3096;BME280;1558;42.700;23.360;2023-01-26T02:04:03;95770.31;;;-0.47;100.00
3096;BME280;1558;42.700;23.360;2023-01-26T02:06:35;95762.28;;;-0.57;100.00
3096;BME280;1558;42.700;23.360;2023-01-26T02:09:04;95772.19;;;-0.48;100.00
3096;BME280;1558;42.700;23.360;2023-01-26T02:11:37;95760.78;;;-0.48;100.00
3096;BME280;1558;42.700;23.360;2023-01-26T02:14:08;95763.16;;;-0.47;100.00
3096;BME280;1558;42.700;23.360;2023-01-26T02:16:39;95752.84;;;-0.48;100.00
3096;BME280;1558;42.700;23.360;2023-01-26T02:19:11;95749.59;;;-0.55;100.00
3096;BME280;1558;42.700;23.360;2023-01-26T02:21:44;95750.19;;;-0.48;100.00
3096;BME280;1558;42.700;23.360;2023-01-26T02:24:18;95739.59;;;-0.48;100.00
3096;BME280;1558;42.700;23.360;2023-01-26T02:26:52;95716.19;;;-0.56;100.00
3096;BME280;1558;42.700;23.360;2023-01-26T02:29:21;95656.78;;;-0.97;100.00
3096;BME280;1558;42.700;23.360;2023-01-26T02:31:49;95719.97;;;-0.52;100.00
3096;BME280;1558;42.700;23.360;2023-01-26T02:34:19;95716.75;;;-0.54;100.00
3096;BME280;1558;42.700;23.360;2023-01-26T02:36:55;95710.41;;;-0.53;100.00
3096;BME280;1558;42.700;23.360;2023-01-26T02:39:33;95720.72;;;-0.52;100.00
3096;BME280;1558;42.700;23.360;2023-01-26T02:42:06;95728.44;;;-0.50;100.00
3096;BME280;1558;42.700;23.360;2023-01-26T02:44:52;95721.00;;;-0.53;100.00
3096;BME280;1558;42.700;23.360;2023-01-26T02:47:20;95714.66;;;-0.52;100.00
3096;BME280;1558;42.700;23.360;2023-01-26T02:49:47;95696.78;;;-0.67;100.00
3096;BME280;1558;42.700;23.360;2023-01-26T02:52:18;95710.41;;;-0.53;100.00
3096;BME280;1558;42.700;23.360;2023-01-26T02:54:46;95700.63;;;-0.53;100.00
3096;BME280;1558;42.700;23.360;2023-01-26T02:57:33;95694.41;;;-0.63;100.00
3096;BME280;1558;42.700;23.360;2023-01-26T03:00:01;95699.81;;;-0.53;100.00
3096;BME280;1558;42.700;23.360;2023-01-26T03:02:29;95695.56;;;-0.54;100.00
3096;BME280;1558;42.700;23.360;2023-01-26T03:04:57;95611.50;;;-1.01;100.00
3096;BME280;1558;42.700;23.360;2023-01-26T03:07:25;95700.91;;;-0.49;100.00
3096;BME280;1558;42.700;23.360;2023-01-26T03:09:54;95658.66;;;-0.66;100.00
3096;BME280;1558;42.700;23.360;2023-01-26T03:12:21;95677.06;;;-0.49;100.00
3096;BME280;1558;42.700;23.360;2023-01-26T03:14:51;95690.31;;;-0.49;100.00
3096;BME280;1558;42.700;23.360;2023-01-26T03:17:43;95676.03;;;-0.48;100.00
3096;BME280;1558;42.700;23.360;2023-01-26T03:20:11;95667.56;;;-0.45;100.00
3096;BME280;1558;42.700;23.360;2023-01-26T03:23:11;95660.13;;;-0.48;100.00
3096;BME280;1558;42.700;23.360;2023-01-26T03:25:56;95573.50;;;-1.16;100.00
3096;BME280;1558;42.700;23.360;2023-01-26T03:28:42;95652.41;;;-0.50;100.00
3096;BME280;1558;42.700;23.360;2023-01-26T03:31:11;95631.97;;;-0.59;100.00
3096;BME280;1558;42.700;23.360;2023-01-26T03:33:39;95646.34;;;-0.50;100.00
3096;BME280;1558;42.700;23.360;2023-01-26T03:36:07;95654.53;;;-0.52;100.00
3096;BME280;1558;42.700;23.360;2023-01-26T03:38:35;95665.91;;;-0.51;100.00
3096;BME280;1558;42.700;23.360;2023-01-26T03:41:03;95642.88;;;-0.51;100.00
3096;BME280;1558;42.700;23.360;2023-01-26T03:43:48;95650.34;;;-0.48;100.00
3096;BME280;1558;42.700;23.360;2023-01-26T03:46:35;95643.16;;;-0.47;100.00
3096;BME280;1558;42.700;23.360;2023-01-26T03:49:20;95644.47;;;-0.50;100.00
3096;BME280;1558;42.700;23.360;2023-01-26T03:52:05;95642.63;;;-0.49;100.00
3096;BME280;1558;42.700;23.360;2023-01-26T03:54:51;95634.44;;;-0.48;100.00
3096;BME280;1558;42.700;23.360;2023-01-26T03:57:36;95629.66;;;-0.51;100.00
3096;BME280;1558;42.700;23.360;2023-01-26T04:00:05;95631.22;;;-0.50;100.00
3096;BME280;1558;42.700;23.360;2023-01-26T04:02:35;95633.06;;;-0.55;100.00
3096;BME280;1558;42.700;23.360;2023-01-26T04:05:20;95619.47;;;-0.64;100.00
3096;BME280;1558;42.700;23.360;2023-01-26T04:08:05;95625.38;;;-0.52;100.00
3096;BME280;1558;42.700;23.360;2023-01-26T04:10:49;95616.66;;;-0.52;100.00
3096;BME280;1558;42.700;23.360;2023-01-26T04:13:18;95561.53;;;-0.92;100.00
3096;BME280;1558;42.700;23.360;2023-01-26T04:16:04;95597.75;;;-0.66;100.00
3096;BME280;1558;42.700;23.360;2023-01-26T04:18:51;95613.50;;;-0.49;100.00
3096;BME280;1558;42.700;23.360;2023-01-26T04:21:36;95597.59;;;-0.49;100.00
3096;BME280;1558;42.700;23.360;2023-01-26T04:24:05;95593.09;;;-0.49;100.00
3096;BME280;1558;42.700;23.360;2023-01-26T04:26:36;95575.38;;;-0.48;100.00
3096;BME280;1558;42.700;23.360;2023-01-26T04:29:06;95549.84;;;-0.64;100.00
3096;BME280;1558;42.700;23.360;2023-01-26T04:31:34;95578.28;;;-0.45;100.00
3096;BME280;1558;42.700;23.360;2023-01-26T04:34:05;95580.16;;;-0.40;100.00
3096;BME280;1558;42.700;23.360;2023-01-26T04:36:33;95593.94;;;-0.43;100.00
3096;BME280;1558;42.700;23.360;2023-01-26T04:39:01;95587.84;;;-0.44;100.00
3096;BME280;1558;42.700;23.360;2023-01-26T04:41:29;95578.06;;;-0.43;100.00
3096;BME280;1558;42.700;23.360;2023-01-26T04:44:01;95561.78;;;-0.57;100.00
3096;BME280;1558;42.700;23.360;2023-01-26T04:46:29;95588.38;;;-0.42;100.00
3096;BME280;1558;42.700;23.360;2023-01-26T04:48:58;95575.38;;;-0.48;100.00
3096;BME280;1558;42.700;23.360;2023-01-26T04:51:28;95575.38;;;-0.48;100.00
3096;BME280;1558;42.700;23.360;2023-01-26T04:53:55;95557.81;;;-0.59;100.00
3096;BME280;1558;42.700;23.360;2023-01-26T04:56:25;95591.84;;;-0.41;100.00
3096;BME280;1558;42.700;23.360;2023-01-26T04:58:53;95592.38;;;-0.39;100.00
3096;BME280;1558;42.700;23.360;2023-01-26T05:01:22;95403.66;;;-1.55;100.00
3096;BME280;1558;42.700;23.360;2023-01-26T05:03:50;95593.19;;;-0.39;100.00
3096;BME280;1558;42.700;23.360;2023-01-26T05:06:18;95591.06;;;-0.37;100.00
3096;BME280;1558;42.700;23.360;2023-01-26T05:08:48;95574.34;;;-0.42;100.00
3096;BME280;1558;42.700;23.360;2023-01-26T05:11:16;95593.47;;;-0.30;100.00
3096;BME280;1558;42.700;23.360;2023-01-26T05:13:44;95586.06;;;-0.28;100.00
3096;BME280;1558;42.700;23.360;2023-01-26T05:16:12;95524.88;;;-0.79;100.00
3096;BME280;1558;42.700;23.360;2023-01-26T05:18:40;95583.16;;;-0.32;100.00
3096;BME280;1558;42.700;23.360;2023-01-26T05:21:09;95590.59;;;-0.29;100.00
3096;BME280;1558;42.700;23.360;2023-01-26T05:23:37;95591.59;;;-0.35;100.00
3096;BME280;1558;42.700;23.360;2023-01-26T05:26:08;95579.63;;;-0.42;100.00
3096;BME280;1558;42.700;23.360;2023-01-26T05:28:36;95573.41;;;-0.26;100.00
3096;BME280;1558;42.700;23.360;2023-01-26T05:31:04;95577.09;;;-0.27;100.00
3096;BME280;1558;42.700;23.360;2023-01-26T05:33:32;95538.56;;;-0.45;100.00
3096;BME280;1558;42.700;23.360;2023-01-26T05:36:03;95571.53;;;-0.26;100.00
3096;BME280;1558;42.700;23.360;2023-01-26T05:38:33;95543.84;;;-0.45;100.00
3096;BME280;1558;42.700;23.360;2023-01-26T05:41:01;95551.59;;;-0.38;100.00
3096;BME280;1558;42.700;23.360;2023-01-26T05:43:30;95567.56;;;-0.23;100.00
3096;BME280;1558;42.700;23.360;2023-01-26T05:45:58;95554.25;;;-0.38;100.00
3096;BME280;1558;42.700;23.360;2023-01-26T05:48:26;95563.34;;;-0.24;100.00
3096;BME280;1558;42.700;23.360;2023-01-26T05:50:55;95568.09;;;-0.21;100.00
3096;BME280;1558;42.700;23.360;2023-01-26T05:53:24;95573.41;;;-0.21;100.00
3096;BME280;1558;42.700;23.360;2023-01-26T05:55:52;95573.66;;;-0.23;100.00
3096;BME280;1558;42.700;23.360;2023-01-26T05:58:19;95559.88;;;-0.25;100.00
3096;BME280;1558;42.700;23.360;2023-01-26T06:00:49;95575.84;;;-0.15;100.00
3096;BME280;1558;42.700;23.360;2023-01-26T06:03:17;95581.91;;;-0.14;100.00
3096;BME280;1558;42.700;23.360;2023-01-26T06:05:51;95583.00;;;-0.10;100.00
3096;BME280;1558;42.700;23.360;2023-01-26T06:08:19;95577.72;;;-0.10;100.00
3096;BME280;1558;42.700;23.360;2023-01-26T06:10:47;95566.84;;;-0.09;100.00
3096;BME280;1558;42.700;23.360;2023-01-26T06:13:15;95565.00;;;-0.08;100.00
3096;BME280;1558;42.700;23.360;2023-01-26T06:15:43;95464.28;;;-0.70;100.00
3096;BME280;1558;42.700;23.360;2023-01-26T06:18:12;95564.50;;;-0.05;100.00
3096;BME280;1558;42.700;23.360;2023-01-26T06:20:40;95556.81;;;-0.02;100.00
3096;BME280;1558;42.700;23.360;2023-01-26T06:23:09;95425.78;;;-0.88;100.00
3096;BME280;1558;42.700;23.360;2023-01-26T06:25:38;95558.66;;;-0.02;100.00
3096;BME280;1558;42.700;23.360;2023-01-26T06:28:06;95552.56;;;0.03;100.00
3096;BME280;1558;42.700;23.360;2023-01-26T06:30:34;95526.00;;;-0.18;100.00
3096;BME280;1558;42.700;23.360;2023-01-26T06:33:02;95545.97;;;0.00;100.00
3096;BME280;1558;42.700;23.360;2023-01-26T06:35:34;95536.91;;;-0.04;100.00
3096;BME280;1558;42.700;23.360;2023-01-26T06:38:02;95539.03;;;-0.06;100.00
3096;BME280;1558;42.700;23.360;2023-01-26T06:40:30;95534.81;;;0.03;100.00
3096;BME280;1558;42.700;23.360;2023-01-26T06:42:58;95547.56;;;0.06;100.00
3096;BME280;1558;42.700;23.360;2023-01-26T06:45:26;95553.91;;;0.05;100.00
3096;BME280;1558;42.700;23.360;2023-01-26T06:47:54;95528.69;;;-0.08;100.00
3096;BME280;1558;42.700;23.360;2023-01-26T06:50:25;95515.16;;;-0.11;100.00
3096;BME280;1558;42.700;23.360;2023-01-26T06:52:59;95547.59;;;0.11;100.00
3096;BME280;1558;42.700;23.360;2023-01-26T06:55:34;95536.72;;;0.13;100.00
3096;BME280;1558;42.700;23.360;2023-01-26T06:58:02;95550.78;;;0.13;100.00
3096;BME280;1558;42.700;23.360;2023-01-26T07:00:30;95535.91;;;0.12;100.00
3096;BME280;1558;42.700;23.360;2023-01-26T07:02:59;95521.00;;;-0.04;100.00
3096;BME280;1558;42.700;23.360;2023-01-26T07:05:26;95527.19;;;0.12;100.00
3096;BME280;1558;42.700;23.360;2023-01-26T07:07:54;95547.59;;;0.16;100.00
3096;BME280;1558;42.700;23.360;2023-01-26T07:10:24;95531.41;;;0.13;100.00
3096;BME280;1558;42.700;23.360;2023-01-26T07:12:51;95528.50;;;0.14;100.00
3096;BME280;1558;42.700;23.360;2023-01-26T07:15:19;95516.31;;;0.18;100.00
3096;BME280;1558;42.700;23.360;2023-01-26T07:17:47;95521.34;;;0.20;100.00
3096;BME280;1558;42.700;23.360;2023-01-26T07:20:15;95511.28;;;0.12;100.00
3096;BME280;1558;42.700;23.360;2023-01-26T07:22:43;95511.00;;;0.13;100.00
3096;BME280;1558;42.700;23.360;2023-01-26T07:25:11;95526.94;;;0.18;100.00
3096;BME280;1558;42.700;23.360;2023-01-26T07:27:41;95517.38;;;0.22;100.00
3096;BME280;1558;42.700;23.360;2023-01-26T07:30:11;95514.25;;;0.30;100.00
3096;BME280;1558;42.700;23.360;2023-01-26T07:32:40;95519.53;;;0.30;100.00
3096;BME280;1558;42.700;23.360;2023-01-26T07:35:08;95524.03;;;0.25;100.00
3096;BME280;1558;42.700;23.360;2023-01-26T07:37:36;95516.31;;;0.13;100.00
3096;BME280;1558;42.700;23.360;2023-01-26T07:40:05;95530.38;;;0.14;100.00
3096;BME280;1558;42.700;23.360;2023-01-26T07:42:35;95510.72;;;0.10;100.00
3096;BME280;1558;42.700;23.360;2023-01-26T07:45:06;95504.63;;;0.09;100.00
3096;BME280;1558;42.700;23.360;2023-01-26T07:47:34;95504.38;;;0.11;100.00
3096;BME280;1558;42.700;23.360;2023-01-26T07:50:03;95498.84;;;0.27;100.00
3096;BME280;1558;42.700;23.360;2023-01-26T07:52:32;95503.38;;;0.37;100.00
3096;BME280;1558;42.700;23.360;2023-01-26T07:55:00;95476.56;;;0.18;100.00
3096;BME280;1558;42.700;23.360;2023-01-26T07:57:28;95470.16;;;0.19;100.00
3096;BME280;1558;42.700;23.360;2023-01-26T07:59:56;95509.50;;;0.42;100.00
3096;BME280;1558;42.700;23.360;2023-01-26T08:02:28;95512.41;;;0.46;100.00
3096;BME280;1558;42.700;23.360;2023-01-26T08:04:58;95498.06;;;0.37;100.00
3096;BME280;1558;42.700;23.360;2023-01-26T08:07:26;95467.56;;;0.39;100.00
3096;BME280;1558;42.700;23.360;2023-01-26T08:09:53;95492.03;;;0.66;100.00
3096;BME280;1558;42.700;23.360;2023-01-26T08:12:21;95494.13;;;0.69;100.00
3096;BME280;1558;42.700;23.360;2023-01-26T08:14:49;95493.31;;;0.69;100.00
3096;BME280;1558;42.700;23.360;2023-01-26T08:17:17;95435.47;;;0.41;100.00
3096;BME280;1558;42.700;23.360;2023-01-26T08:19:47;95477.94;;;0.81;100.00
3096;BME280;1558;42.700;23.360;2023-01-26T08:22:15;95476.38;;;0.85;100.00
3096;BME280;1558;42.700;23.360;2023-01-26T08:24:43;95455.13;;;0.70;100.00
3096;BME280;1558;42.700;23.360;2023-01-26T08:27:11;95477.94;;;0.86;100.00
3096;BME280;1558;42.700;23.360;2023-01-26T08:29:40;95467.88;;;0.78;100.00
3096;BME280;1558;42.700;23.360;2023-01-26T08:32:08;95465.19;;;0.93;100.00
3096;BME280;1558;42.700;23.360;2023-01-26T08:34:36;95472.63;;;0.96;100.00
3096;BME280;1558;42.700;23.360;2023-01-26T08:37:05;95454.31;;;0.85;100.00
3096;BME280;1558;42.700;23.360;2023-01-26T08:39:33;95459.09;;;0.93;100.00
3096;BME280;1558;42.700;23.360;2023-01-26T08:42:01;95463.88;;;1.06;100.00
3096;BME280;1558;42.700;23.360;2023-01-26T08:44:29;95462.00;;;1.11;100.00
3096;BME280;1558;42.700;23.360;2023-01-26T08:46:57;95451.63;;;1.10;100.00
3096;BME280;1558;42.700;23.360;2023-01-26T08:49:25;95454.81;;;1.12;100.00
3096;BME280;1558;42.700;23.360;2023-01-26T08:51:53;95437.59;;;1.04;100.00
3096;BME280;1558;42.700;23.360;2023-01-26T08:54:22;95459.88;;;1.23;100.00
3096;BME280;1558;42.700;23.360;2023-01-26T08:56:51;95461.72;;;1.28;100.00
3096;BME280;1558;42.700;23.360;2023-01-26T08:59:20;95458.75;;;1.40;100.00
3096;BME280;1558;42.700;23.360;2023-01-26T09:01:48;95472.28;;;1.38;100.00
3096;BME280;1558;42.700;23.360;2023-01-26T09:04:16;95452.66;;;1.34;100.00
3096;BME280;1558;42.700;23.360;2023-01-26T09:06:44;95463.78;;;1.41;100.00
3096;BME280;1558;42.700;23.360;2023-01-26T09:09:13;95470.72;;;1.37;100.00
3096;BME280;1558;42.700;23.360;2023-01-26T09:11:42;95464.88;;;1.35;100.00
3096;BME280;1558;42.700;23.360;2023-01-26T09:14:10;95459.81;;;1.33;100.00
3096;BME280;1558;42.700;23.360;2023-01-26T09:16:38;95448.41;;;1.33;100.00
3096;BME280;1558;42.700;23.360;2023-01-26T09:19:06;95454.25;;;1.35;100.00
3096;BME280;1558;42.700;23.360;2023-01-26T09:21:34;95447.03;;;1.46;100.00
3096;BME280;1558;42.700;23.360;2023-01-26T09:24:02;95435.88;;;1.44;100.00
3096;BME280;1558;42.700;23.360;2023-01-26T09:26:30;95445.16;;;1.51;100.00
3096;BME280;1558;42.700;23.360;2023-01-26T09:28:59;95434.50;;;1.61;100.00
3096;BME280;1558;42.700;23.360;2023-01-26T09:31:27;95432.94;;;1.55;100.00
3096;BME280;1558;42.700;23.360;2023-01-26T09:33:55;95419.66;;;1.50;100.00
3096;BME280;1558;42.700;23.360;2023-01-26T09:36:23;95415.66;;;1.58;100.00
3096;BME280;1558;42.700;23.360;2023-01-26T09:38:51;95403.22;;;1.43;100.00
3096;BME280;1558;42.700;23.360;2023-01-26T09:41:45;95403.78;;;1.35;100.00
3096;BME280;1558;42.700;23.360;2023-01-26T09:44:18;95421.28;;;1.46;100.00
3096;BME280;1558;42.700;23.360;2023-01-26T09:46:57;95363.19;;;1.14;100.00
3096;BME280;1558;42.700;23.360;2023-01-26T09:49:39;95421.78;;;1.48;100.00
3096;BME280;1558;42.700;23.360;2023-01-26T09:52:14;95426.88;;;1.40;100.00
3096;BME280;1558;42.700;23.360;2023-01-26T09:54:47;95415.97;;;1.46;100.00
3096;BME280;1558;42.700;23.360;2023-01-26T09:57:19;95383.84;;;1.43;100.00
3096;BME280;1558;42.700;23.360;2023-01-26T09:59:53;95395.69;;;1.60;100.00
3096;BME280;1558;42.700;23.360;2023-01-26T10:02:34;95377.34;;;1.69;100.00
3096;BME280;1558;42.700;23.360;2023-01-26T10:05:13;95407.84;;;1.76;100.00
3096;BME280;1558;42.700;23.360;2023-01-26T10:07:43;95372.41;;;1.42;100.00
3096;BME280;1558;42.700;23.360;2023-01-26T10:10:17;95422.75;;;1.72;100.00
3096;BME280;1558;42.700;23.360;2023-01-26T10:12:48;95438.72;;;1.67;100.00
3096;BME280;1558;42.700;23.360;2023-01-26T10:15:26;95410.28;;;1.68;100.00
3096;BME280;1558;42.700;23.360;2023-01-26T10:17:57;95415.63;;;1.63;100.00
3096;BME280;1558;42.700;23.360;2023-01-26T10:20:30;95404.25;;;1.52;100.00
3096;BME280;1558;42.700;23.360;2023-01-26T10:23:01;95402.38;;;1.48;100.00
3096;BME280;1558;42.700;23.360;2023-01-26T10:25:33;95378.47;;;1.48;100.00
3096;BME280;1558;42.700;23.360;2023-01-26T10:28:10;95367.63;;;1.39;100.00
3096;BME280;1558;42.700;23.360;2023-01-26T10:30:42;95377.97;;;1.46;100.00
3096;BME280;1558;42.700;23.360;2023-01-26T10:33:14;95344.19;;;1.51;100.00
3096;BME280;1558;42.700;23.360;2023-01-26T10:35:43;95155.69;;;0.33;100.00
3096;BME280;1558;42.700;23.360;2023-01-26T10:38:27;95346.28;;;1.59;100.00
3096;BME280;1558;42.700;23.360;2023-01-26T10:40:55;95297.53;;;1.30;100.00
3096;BME280;1558;42.700;23.360;2023-01-26T10:43:25;95330.03;;;1.66;100.00
3096;BME280;1558;42.700;23.360;2023-01-26T10:45:55;95304.28;;;1.61;100.00
3096;BME280;1558;42.700;23.360;2023-01-26T10:48:23;95298.03;;;1.81;100.00
3096;BME280;1558;42.700;23.360;2023-01-26T10:50:53;95289.81;;;1.77;100.00
3096;BME280;1558;42.700;23.360;2023-01-26T10:53:23;95287.38;;;1.86;100.00
3096;BME280;1558;42.700;23.360;2023-01-26T10:55:58;95276.47;;;1.87;100.00
3096;BME280;1558;42.700;23.360;2023-01-26T10:58:41;95276.94;;;1.94;100.00
3096;BME280;1558;42.700;23.360;2023-01-26T11:01:12;95273.72;;;1.97;100.00
3096;BME280;1558;42.700;23.360;2023-01-26T11:04:03;95225.00;;;1.73;100.00
3096;BME280;1558;42.700;23.360;2023-01-26T11:06:32;95272.06;;;2.07;100.00
3096;BME280;1558;42.700;23.360;2023-01-26T11:09:17;95260.88;;;2.04;100.00
3096;BME280;1558;42.700;23.360;2023-01-26T11:12:09;95255.06;;;2.02;100.00
3096;BME280;1558;42.700;23.360;2023-01-26T11:14:58;95251.97;;;1.90;100.00
3096;BME280;1558;42.700;23.360;2023-01-26T11:17:32;95157.25;;;1.37;100.00
3096;BME280;1558;42.700;23.360;2023-01-26T11:20:34;95228.00;;;1.95;100.00
3096;BME280;1558;42.700;23.360;2023-01-26T11:23:09;95228.50;;;1.97;100.00
3096;BME280;1558;42.700;23.360;2023-01-26T11:25:46;95225.34;;;1.95;100.00
3096;BME280;1558;42.700;23.360;2023-01-26T11:28:30;95218.41;;;1.99;100.00
3096;BME280;1558;42.700;23.360;2023-01-26T11:31:08;95209.66;;;1.94;100.00
3096;BME280;1558;42.700;23.360;2023-01-26T11:33:49;95227.53;;;1.88;100.00
3096;BME280;1558;42.700;23.360;2023-01-26T11:36:29;95206.75;;;1.90;100.00
3096;BME280;1558;42.700;23.360;2023-01-26T11:39:09;95204.41;;;1.89;100.00
3096;BME280;1558;42.700;23.360;2023-01-26T11:41:48;95196.66;;;1.92;100.00
3096;BME280;1558;42.700;23.360;2023-01-26T11:44:30;95173.25;;;1.94;100.00
3096;BME280;1558;42.700;23.360;2023-01-26T11:47:12;95179.84;;;2.02;100.00
3096;BME280;1558;42.700;23.360;2023-01-26T11:50:00;95183.72;;;2.10;100.00
3096;BME280;1558;42.700;23.360;2023-01-26T11:52:35;95182.16;;;2.09;100.00
3096;BME280;1558;42.700;23.360;2023-01-26T11:55:25;95190.25;;;2.22;100.00
3096;BME280;1558;42.700;23.360;2023-01-26T11:58:05;95185.19;;;2.26;100.00
3096;BME280;1558;42.700;23.360;2023-01-26T12:00:40;95183.69;;;2.15;100.00
3096;BME280;1558;42.700;23.360;2023-01-26T12:03:18;95184.19;;;2.17;100.00
3096;BME280;1558;42.700;23.360;2023-01-26T12:05:51;95178.75;;;2.27;100.00
3096;BME280;1558;42.700;23.360;2023-01-26T12:08:22;95108.97;;;1.87;100.00
3096;BME280;1558;42.700;23.360;2023-01-26T12:10:58;95179.06;;;2.25;100.00
3096;BME280;1558;42.700;23.360;2023-01-26T12:14:02;95180.00;;;2.11;100.00
3096;BME280;1558;42.700;23.360;2023-01-26T12:16:48;95169.44;;;2.00;100.00
3096;BME280;1558;42.700;23.360;2023-01-26T12:19:29;95120.50;;;1.78;100.00
3096;BME280;1558;42.700;23.360;2023-01-26T12:22:07;95163.06;;;2.01;100.00
3096;BME280;1558;42.700;23.360;2023-01-26T12:24:40;95159.31;;;2.02;100.00
3096;BME280;1558;42.700;23.360;2023-01-26T12:27:35;95140.72;;;2.02;100.00
3096;BME280;1558;42.700;23.360;2023-01-26T12:30:20;95140.19;;;2.00;100.00
3096;BME280;1558;42.700;23.360;2023-01-26T12:32:51;95117.47;;;1.89;100.00
3096;BME280;1558;42.700;23.360;2023-01-26T12:35:29;95128.25;;;1.98;100.00
3096;BME280;1558;42.700;23.360;2023-01-26T12:38:08;95132.28;;;1.95;100.00
3096;BME280;1558;42.700;23.360;2023-01-26T12:40:53;95122.69;;;1.99;100.00
3096;BME280;1558;42.700;23.360;2023-01-26T12:43:37;95114.06;;;2.08;100.00
3096;BME280;1558;42.700;23.360;2023-01-26T12:46:09;95089.06;;;1.85;100.00
3096;BME280;1558;42.700;23.360;2023-01-26T12:48:42;95126.31;;;2.09;100.00
3096;BME280;1558;42.700;23.360;2023-01-26T12:51:17;95107.03;;;1.93;100.00
3096;BME280;1558;42.700;23.360;2023-01-26T12:53:55;95096.84;;;1.76;100.00
3096;BME280;1558;42.700;23.360;2023-01-26T12:56:28;95102.75;;;1.97;100.00
3096;BME280;1558;42.700;23.360;2023-01-26T12:59:12;95047.06;;;1.58;100.00
3096;BME280;1558;42.700;23.360;2023-01-26T13:02:09;95113.66;;;1.95;100.00
3096;BME280;1558;42.700;23.360;2023-01-26T13:04:44;95107.84;;;1.93;100.00
3096;BME280;1558;42.700;23.360;2023-01-26T13:07:32;95107.28;;;1.96;100.00
3096;BME280;1558;42.700;23.360;2023-01-26T13:10:27;95105.94;;;1.99;100.00
3096;BME280;1558;42.700;23.360;2023-01-26T13:12:57;95111.50;;;1.97;100.00
3096;BME280;1558;42.700;23.360;2023-01-26T13:15:27;95086.34;;;1.90;100.00
3096;BME280;1558;42.700;23.360;2023-01-26T13:17:58;95109.88;;;2.01;100.00
3096;BME280;1558;42.700;23.360;2023-01-26T13:20:39;95108.06;;;1.97;100.00
3096;BME280;1558;42.700;23.360;2023-01-26T13:26:41;95110.03;;;1.86;100.00
3096;BME280;1558;42.700;23.360;2023-01-26T13:29:33;95086.66;;;1.83;100.00
3096;BME280;1558;42.700;23.360;2023-01-26T13:35:08;95084.63;;;1.75;100.00
3096;BME280;1558;42.700;23.360;2023-01-26T13:37:46;95090.97;;;1.79;100.00
3096;BME280;1558;42.700;23.360;2023-01-26T13:40:18;95086.66;;;1.83;100.00